Accueil
METAR-TAF:

METAR-TAF

Aéroports :

Aéroport de Laghouat - Moulay Ahmed Medeghri

Laghouat, Algérie

latitude: 33-46N, longitude: 002-56E, altitude: 765 m

Observation

Le bulletin a été fait il y a 37 minutes, à 08:00 UTC
Vent 8 kt de ouest/sud-ouest
Température 24°C
Humidité 38%
Pression 1019 hPa
Visibilité 10 km ou plus
pas de nuages en-dessous de 1500 mètres et pas de cumulonimbus.

METAR: DAUL 290800Z 25008KT CAVOK 24/09 Q1019

Heure: 09:37 (08:37 UTC)

Prévision

Le bulletin a été fait il y a 3 heures et 37 minutes, à 05:00 UTC
Prévision valable du 29 à 06 UTC au 29 à 15 UTC
Vent 12 kt de sud-ouest
Visibilité 10 km ou plus
Quelques nuages à une hauteur de 3300 ft
Nuages épars à une hauteur de 10000 ft
Probabilité 30% :
Temporairement
du 29 à 06 UTC au 29 à 10 UTC
Quelques nuages à une hauteur de 3300 ft, Cumulus congestus.

TAF: DAUL 290500Z 2906/2915 22012KT 9999 FEW033 SCT100 PROB30 TEMPO 2906/2910 FEW033TCU

Observations et prévisions météorologiques de plus de 4000 aéroports (messages METAR et TAF).

Les stations disponibles sont représentées par des disques jaunes et rouges sur la carte.

Passer la souris dessus pour voir le nom de la station.

Cliquer dessus pour voir les observations et prévisions météorologiques.

Pour changer de carte: cliquez sur les boutons verts avec une croix noire pour zoomer, sur le bouton vert avec un tiret pour effectuer un zoom arrière, ou sur les flèches vertes pour les cartes adjacentes.


METAR-TAF: